UTA248 USRR-UUWW
Flight info
| Callsign | UTA248 |
|---|---|
| Flight time | N/A |
| Altitude | 34000 |
| Route | ANIKI1W ANIKI G484 HMN L870 UNISO N155 NIPRA/K0800F360 N155 BALOB T760 ROTLO T757 BULAT |
| Aircraft | B735/M-SDFGIRWYZ/H |
Departure
| Time | 2026-05-06 12:26 |
|---|---|
| Airport | Surgut International Airport (USRR) |
Arrival
| Time | N/A |
|---|---|
| Airport | Vnukovo International Airport (UUWW) |
| Time | Latitude | Longitude | Altitude | Speed | Heading |
|---|---|---|---|---|---|
| 2026-05-06 12:10 | 61.34091 | 73.40701 | 217 ft | 0 kts | 179° |
| 2026-05-06 12:10 | 61.34090 | 73.40701 | 217 ft | 0 kts | 179° |
| 2026-05-06 12:19 | 61.34101 | 73.40701 | 218 ft | 4 kts | 177° |
| 2026-05-06 12:19 | 61.34128 | 73.40695 | 208 ft | 4 kts | 169° |
| 2026-05-06 12:20 | 61.34154 | 73.40680 | 210 ft | 4 kts | 158° |
| 2026-05-06 12:20 | 61.34176 | 73.40651 | 208 ft | 4 kts | 125° |
| 2026-05-06 12:20 | 61.34181 | 73.40624 | 208 ft | 0 kts | 89° |
| 2026-05-06 12:22 | 61.34181 | 73.40637 | 214 ft | 3 kts | 89° |
| 2026-05-06 12:22 | 61.34181 | 73.40706 | 209 ft | 6 kts | 90° |
| 2026-05-06 12:22 | 61.34182 | 73.40813 | 210 ft | 9 kts | 90° |
| 2026-05-06 12:22 | 61.34182 | 73.40952 | 208 ft | 10 kts | 89° |
| 2026-05-06 12:23 | 61.34183 | 73.41105 | 212 ft | 11 kts | 90° |
| 2026-05-06 12:23 | 61.34184 | 73.41268 | 213 ft | 12 kts | 89° |
| 2026-05-06 12:23 | 61.34185 | 73.41466 | 208 ft | 14 kts | 88° |
| 2026-05-06 12:23 | 61.34188 | 73.41681 | 208 ft | 15 kts | 89° |
| 2026-05-06 12:24 | 61.34188 | 73.41907 | 208 ft | 16 kts | 90° |
| 2026-05-06 12:24 | 61.34188 | 73.42141 | 208 ft | 16 kts | 89° |
| 2026-05-06 12:24 | 61.34193 | 73.42379 | 208 ft | 16 kts | 76° |
| 2026-05-06 12:24 | 61.34270 | 73.42545 | 210 ft | 17 kts | 30° |
| 2026-05-06 12:25 | 61.34360 | 73.42661 | 210 ft | 12 kts | 37° |
| 2026-05-06 12:25 | 61.34395 | 73.42635 | 205 ft | 8 kts | 279° |
| 2026-05-06 12:25 | 61.34394 | 73.42473 | 201 ft | 27 kts | 269° |
| 2026-05-06 12:25 | 61.34393 | 73.41642 | 211 ft | 87 kts | 270° |
| 2026-05-06 12:26 | 61.34388 | 73.39925 | 213 ft | 148 kts | 267° |
| 2026-05-06 12:26 | 61.34366 | 73.37507 | 621 ft | 175 kts | 266° |
| 2026-05-06 12:26 | 61.34351 | 73.35016 | 1588 ft | 171 kts | 262° |
| 2026-05-06 12:26 | 61.34040 | 73.32680 | 2493 ft | 168 kts | 239° |
| 2026-05-06 12:27 | 61.33397 | 73.30604 | 3153 ft | 179 kts | 237° |
| 2026-05-06 12:27 | 61.32641 | 73.28327 | 3549 ft | 201 kts | 237° |
| 2026-05-06 12:27 | 61.31822 | 73.25891 | 4246 ft | 211 kts | 237° |
| 2026-05-06 12:27 | 61.31015 | 73.23258 | 4976 ft | 215 kts | 244° |
| 2026-05-06 12:28 | 61.30352 | 73.20397 | 5641 ft | 229 kts | 247° |
| 2026-05-06 12:28 | 61.29671 | 73.17271 | 6248 ft | 242 kts | 247° |
| 2026-05-06 12:28 | 61.28953 | 73.14083 | 7090 ft | 246 kts | 246° |
| 2026-05-06 12:28 | 61.28214 | 73.10843 | 7909 ft | 252 kts | 246° |
| 2026-05-06 12:29 | 61.27453 | 73.07519 | 8811 ft | 255 kts | 246° |
| 2026-05-06 12:29 | 61.26685 | 73.04159 | 9674 ft | 259 kts | 246° |
| 2026-05-06 12:29 | 61.25918 | 73.00803 | 10486 ft | 262 kts | 246° |
| 2026-05-06 12:29 | 61.25113 | 72.97275 | 10936 ft | 281 kts | 246° |
| 2026-05-06 12:30 | 61.24247 | 72.93482 | 11420 ft | 296 kts | 246° |
| 2026-05-06 12:30 | 61.23356 | 72.89595 | 12234 ft | 301 kts | 246° |
| 2026-05-06 12:30 | 61.22444 | 72.85612 | 12996 ft | 308 kts | 246° |
| 2026-05-06 12:30 | 61.21518 | 72.81570 | 13783 ft | 312 kts | 246° |
| 2026-05-06 12:31 | 61.20577 | 72.77458 | 14532 ft | 316 kts | 247° |
| 2026-05-06 12:31 | 61.19628 | 72.73315 | 15272 ft | 320 kts | 247° |
| 2026-05-06 12:31 | 61.18666 | 72.69118 | 16015 ft | 324 kts | 247° |
| 2026-05-06 12:31 | 61.17695 | 72.64882 | 16775 ft | 328 kts | 247° |
| 2026-05-06 12:32 | 61.16707 | 72.60572 | 17536 ft | 332 kts | 247° |
| 2026-05-06 12:32 | 61.15709 | 72.56220 | 18291 ft | 336 kts | 247° |
| 2026-05-06 12:32 | 61.14717 | 72.51896 | 18960 ft | 339 kts | 247° |
| 2026-05-06 12:32 | 61.13703 | 72.47479 | 19652 ft | 341 kts | 247° |
| 2026-05-06 12:33 | 61.12678 | 72.43014 | 20310 ft | 345 kts | 247° |
| 2026-05-06 12:33 | 61.11646 | 72.38518 | 20939 ft | 348 kts | 247° |
| 2026-05-06 12:33 | 61.10601 | 72.33967 | 21621 ft | 351 kts | 247° |
| 2026-05-06 12:33 | 61.09548 | 72.29385 | 22248 ft | 355 kts | 247° |
| 2026-05-06 12:34 | 61.08487 | 72.24767 | 22869 ft | 358 kts | 247° |
| 2026-05-06 12:34 | 61.07415 | 72.20104 | 23462 ft | 362 kts | 247° |
| 2026-05-06 12:34 | 61.06328 | 72.15382 | 24006 ft | 364 kts | 247° |
| 2026-05-06 12:34 | 61.05240 | 72.10652 | 24574 ft | 365 kts | 247° |
| 2026-05-06 12:35 | 61.04147 | 72.05905 | 25101 ft | 368 kts | 248° |
| 2026-05-06 12:35 | 61.03044 | 72.01113 | 25616 ft | 371 kts | 248° |
| 2026-05-06 12:35 | 61.01932 | 71.96287 | 26152 ft | 373 kts | 248° |
| 2026-05-06 12:35 | 61.00866 | 71.91404 | 26663 ft | 374 kts | 251° |
| 2026-05-06 12:36 | 61.00123 | 71.86277 | 27101 ft | 375 kts | 262° |
| 2026-05-06 12:36 | 60.99925 | 71.80908 | 27610 ft | 376 kts | 271° |
| 2026-05-06 12:36 | 61.00056 | 71.75535 | 28263 ft | 374 kts | 274° |
| 2026-05-06 12:36 | 61.00239 | 71.70177 | 28771 ft | 377 kts | 273° |
| 2026-05-06 12:37 | 61.00378 | 71.64750 | 29262 ft | 379 kts | 272° |
| 2026-05-06 12:37 | 61.00441 | 71.61176 | 29695 ft | 377 kts | 272° |
| 2026-05-06 12:37 | 61.00518 | 71.55794 | 30287 ft | 375 kts | 271° |
| 2026-05-06 12:37 | 61.00619 | 71.48592 | 30859 ft | 377 kts | 271° |
| 2026-05-06 12:38 | 61.00702 | 71.43231 | 31222 ft | 380 kts | 272° |
| 2026-05-06 12:38 | 61.00791 | 71.37766 | 31648 ft | 381 kts | 272° |
| 2026-05-06 12:38 | 61.00880 | 71.32314 | 32101 ft | 381 kts | 272° |
| 2026-05-06 12:38 | 61.00968 | 71.26846 | 32530 ft | 382 kts | 272° |
| 2026-05-06 12:39 | 61.01056 | 71.21378 | 32946 ft | 382 kts | 272° |
| 2026-05-06 12:39 | 61.01116 | 71.17666 | 33252 ft | 382 kts | 272° |
| 2026-05-06 12:39 | 61.01203 | 71.12173 | 33565 ft | 385 kts | 272° |
| 2026-05-06 12:39 | 61.01292 | 71.06627 | 33748 ft | 391 kts | 272° |
| 2026-05-06 12:40 | 61.01466 | 70.95396 | 33766 ft | 396 kts | 271° |
| 2026-05-06 12:40 | 61.01612 | 70.84085 | 33766 ft | 394 kts | 271° |
| 2026-05-06 12:41 | 61.01749 | 70.72823 | 33764 ft | 392 kts | 271° |
| 2026-05-06 12:41 | 61.01890 | 70.61572 | 33759 ft | 392 kts | 271° |
| 2026-05-06 12:42 | 61.02031 | 70.50320 | 33757 ft | 393 kts | 271° |
| 2026-05-06 12:42 | 61.02172 | 70.39044 | 33757 ft | 393 kts | 271° |
| 2026-05-06 12:43 | 61.02314 | 70.27748 | 33748 ft | 394 kts | 271° |
| 2026-05-06 12:43 | 61.02454 | 70.16572 | 33755 ft | 391 kts | 271° |
| 2026-05-06 12:44 | 61.02577 | 70.05372 | 33754 ft | 390 kts | 271° |
| 2026-05-06 12:44 | 61.02637 | 69.94165 | 33754 ft | 391 kts | 271° |
| 2026-05-06 12:45 | 61.02687 | 69.82940 | 33743 ft | 391 kts | 270° |
| 2026-05-06 12:46 | 61.02775 | 69.66162 | 33749 ft | 390 kts | 270° |
| 2026-05-06 12:46 | 61.02832 | 69.55009 | 33732 ft | 390 kts | 271° |
| 2026-05-06 12:47 | 61.02889 | 69.43819 | 33742 ft | 390 kts | 271° |
| 2026-05-06 12:47 | 61.02947 | 69.32645 | 33722 ft | 389 kts | 271° |
| 2026-05-06 12:48 | 61.03004 | 69.21454 | 33721 ft | 389 kts | 271° |
| 2026-05-06 12:48 | 61.03273 | 69.10303 | 33720 ft | 389 kts | 276° |
| 2026-05-06 12:49 | 61.03999 | 68.99222 | 33722 ft | 390 kts | 277° |
| 2026-05-06 12:49 | 61.04737 | 68.88202 | 33722 ft | 390 kts | 277° |
| 2026-05-06 12:50 | 61.05431 | 68.77099 | 33723 ft | 390 kts | 277° |
| 2026-05-06 12:50 | 61.06126 | 68.66067 | 33727 ft | 385 kts | 277° |
| 2026-05-06 12:51 | 61.06821 | 68.55107 | 33730 ft | 385 kts | 277° |
| 2026-05-06 12:51 | 61.07514 | 68.44136 | 33733 ft | 385 kts | 277° |
| 2026-05-06 12:52 | 61.08207 | 68.33178 | 33735 ft | 385 kts | 277° |
| 2026-05-06 12:52 | 61.08883 | 68.22182 | 33732 ft | 385 kts | 276° |
| 2026-05-06 12:53 | 61.09422 | 68.11264 | 33740 ft | 384 kts | 275° |
| 2026-05-06 12:53 | 61.09918 | 68.00277 | 33738 ft | 384 kts | 275° |
| 2026-05-06 12:54 | 61.10430 | 67.89282 | 33739 ft | 384 kts | 275° |
| 2026-05-06 12:54 | 61.10946 | 67.78276 | 33743 ft | 385 kts | 275° |
| 2026-05-06 12:55 | 61.11460 | 67.67251 | 33743 ft | 385 kts | 275° |
| 2026-05-06 12:55 | 61.11975 | 67.56218 | 33743 ft | 385 kts | 275° |
| 2026-05-06 12:56 | 61.12489 | 67.45203 | 33745 ft | 385 kts | 275° |
| 2026-05-06 12:56 | 61.13003 | 67.34168 | 33745 ft | 384 kts | 275° |
| 2026-05-06 12:57 | 61.13514 | 67.23227 | 33744 ft | 384 kts | 275° |
| 2026-05-06 12:57 | 61.14025 | 67.12224 | 33753 ft | 384 kts | 274° |
| 2026-05-06 12:58 | 61.14540 | 67.01206 | 33752 ft | 385 kts | 274° |
| 2026-05-06 12:58 | 61.15055 | 66.90163 | 33757 ft | 385 kts | 274° |
| 2026-05-06 12:59 | 61.15570 | 66.79075 | 33747 ft | 388 kts | 274° |
| 2026-05-06 12:59 | 61.16089 | 66.67973 | 33751 ft | 387 kts | 274° |
| 2026-05-06 13:00 | 61.16602 | 66.56962 | 33756 ft | 386 kts | 274° |
| 2026-05-06 13:00 | 61.17119 | 66.45868 | 33757 ft | 386 kts | 274° |
| 2026-05-06 13:01 | 61.17633 | 66.34791 | 33761 ft | 387 kts | 274° |
| 2026-05-06 13:01 | 61.18153 | 66.23640 | 33751 ft | 388 kts | 274° |
| 2026-05-06 13:02 | 61.18673 | 66.12499 | 33743 ft | 388 kts | 274° |
| 2026-05-06 13:02 | 61.19191 | 66.01366 | 33750 ft | 388 kts | 274° |
| 2026-05-06 13:03 | 61.19709 | 65.90243 | 33750 ft | 388 kts | 274° |
| 2026-05-06 13:03 | 61.20227 | 65.79101 | 33750 ft | 388 kts | 274° |
| 2026-05-06 13:04 | 61.20742 | 65.68037 | 33746 ft | 388 kts | 274° |
| 2026-05-06 13:04 | 61.21263 | 65.56819 | 33752 ft | 394 kts | 274° |
| 2026-05-06 13:05 | 61.21793 | 65.45446 | 33742 ft | 397 kts | 274° |
| 2026-05-06 13:05 | 61.22323 | 65.34062 | 33745 ft | 395 kts | 274° |
| 2026-05-06 13:06 | 61.22849 | 65.22723 | 33740 ft | 394 kts | 274° |
| 2026-05-06 13:06 | 61.23376 | 65.11387 | 33741 ft | 395 kts | 274° |
| 2026-05-06 13:07 | 61.23905 | 65.00014 | 33738 ft | 395 kts | 274° |
| 2026-05-06 13:07 | 61.24430 | 64.88720 | 33737 ft | 395 kts | 274° |
| 2026-05-06 13:08 | 61.24957 | 64.77367 | 33737 ft | 395 kts | 274° |
| 2026-05-06 13:08 | 61.25487 | 64.65969 | 33734 ft | 396 kts | 274° |
| 2026-05-06 13:09 | 61.26003 | 64.54581 | 33736 ft | 395 kts | 274° |
| 2026-05-06 13:09 | 61.26392 | 64.43194 | 33739 ft | 395 kts | 272° |
| 2026-05-06 13:10 | 61.26729 | 64.31780 | 33738 ft | 395 kts | 272° |
| 2026-05-06 13:10 | 61.27084 | 64.20381 | 33739 ft | 395 kts | 272° |
| 2026-05-06 13:11 | 61.27441 | 64.08986 | 33731 ft | 395 kts | 272° |
| 2026-05-06 13:11 | 61.27793 | 63.97678 | 33731 ft | 393 kts | 273° |
| 2026-05-06 13:12 | 61.28146 | 63.86347 | 33732 ft | 393 kts | 273° |
| 2026-05-06 13:12 | 61.28500 | 63.74984 | 33733 ft | 394 kts | 273° |
| 2026-05-06 13:13 | 61.28767 | 63.63605 | 33731 ft | 394 kts | 270° |
| 2026-05-06 13:13 | 61.28767 | 63.52195 | 33726 ft | 394 kts | 269° |
| 2026-05-06 13:14 | 61.28737 | 63.40795 | 33727 ft | 394 kts | 269° |
| 2026-05-06 13:14 | 61.28740 | 63.29490 | 33729 ft | 394 kts | 270° |
| 2026-05-06 13:15 | 61.28741 | 63.18109 | 33723 ft | 393 kts | 270° |
| 2026-05-06 13:15 | 61.28739 | 63.06768 | 33729 ft | 392 kts | 270° |
| 2026-05-06 13:16 | 61.28737 | 62.95416 | 33723 ft | 392 kts | 270° |
| 2026-05-06 13:16 | 61.28736 | 62.84062 | 33724 ft | 393 kts | 270° |
| 2026-05-06 13:17 | 61.28733 | 62.72688 | 33723 ft | 393 kts | 270° |
| 2026-05-06 13:17 | 61.28681 | 62.61307 | 33720 ft | 393 kts | 269° |
| 2026-05-06 13:18 | 61.28579 | 62.50033 | 33718 ft | 391 kts | 269° |
| 2026-05-06 13:18 | 61.28482 | 62.38740 | 33718 ft | 391 kts | 269° |
| 2026-05-06 13:19 | 61.28389 | 62.27443 | 33712 ft | 390 kts | 269° |
| 2026-05-06 13:19 | 61.28296 | 62.16154 | 33715 ft | 390 kts | 269° |
| 2026-05-06 13:20 | 61.28202 | 62.04868 | 33716 ft | 390 kts | 269° |
| 2026-05-06 13:20 | 61.28108 | 61.93572 | 33716 ft | 391 kts | 269° |
| 2026-05-06 13:21 | 61.28014 | 61.82250 | 33723 ft | 392 kts | 269° |
| 2026-05-06 13:21 | 61.27920 | 61.70924 | 33712 ft | 392 kts | 269° |
| 2026-05-06 13:22 | 61.27826 | 61.59673 | 33716 ft | 390 kts | 269° |
| 2026-05-06 13:22 | 61.27732 | 61.48320 | 33711 ft | 391 kts | 269° |
| 2026-05-06 13:23 | 61.27623 | 61.37025 | 33720 ft | 391 kts | 268° |
| 2026-05-06 13:23 | 61.27366 | 61.25832 | 33719 ft | 391 kts | 267° |
| 2026-05-06 13:24 | 61.27041 | 61.14533 | 33717 ft | 390 kts | 267° |
| 2026-05-06 13:24 | 61.26737 | 61.03250 | 33711 ft | 391 kts | 267° |
| 2026-05-06 13:25 | 61.26438 | 60.91971 | 33717 ft | 390 kts | 267° |
| 2026-05-06 13:25 | 61.26136 | 60.80716 | 33717 ft | 389 kts | 267° |
| 2026-05-06 13:26 | 61.25837 | 60.69547 | 33719 ft | 390 kts | 267° |
| 2026-05-06 13:26 | 61.25535 | 60.58298 | 33718 ft | 390 kts | 267° |
| 2026-05-06 13:27 | 61.25234 | 60.47037 | 33723 ft | 390 kts | 267° |
| 2026-05-06 13:27 | 61.24933 | 60.35822 | 33720 ft | 389 kts | 267° |
| 2026-05-06 13:28 | 61.24681 | 60.26417 | 33721 ft | 389 kts | 267° |
| 2026-05-06 13:28 | 61.24382 | 60.15250 | 33722 ft | 390 kts | 267° |
| 2026-05-06 13:29 | 61.24080 | 60.03990 | 33718 ft | 390 kts | 267° |
| 2026-05-06 13:29 | 61.23779 | 59.92773 | 33727 ft | 390 kts | 267° |
| 2026-05-06 13:30 | 61.23478 | 59.81541 | 33726 ft | 389 kts | 267° |
| 2026-05-06 13:30 | 61.23177 | 59.70330 | 33728 ft | 389 kts | 267° |
| 2026-05-06 13:31 | 61.22876 | 59.59099 | 33733 ft | 389 kts | 267° |
| 2026-05-06 13:31 | 61.22575 | 59.47883 | 33723 ft | 390 kts | 267° |
| 2026-05-06 13:32 | 61.22275 | 59.36684 | 33737 ft | 388 kts | 267° |
| 2026-05-06 13:32 | 61.21977 | 59.25580 | 33733 ft | 388 kts | 267° |
| 2026-05-06 13:33 | 61.21677 | 59.14393 | 33726 ft | 389 kts | 267° |
| 2026-05-06 13:33 | 61.21376 | 59.03159 | 33729 ft | 388 kts | 267° |
| 2026-05-06 13:34 | 61.21077 | 58.91992 | 33725 ft | 387 kts | 267° |
| 2026-05-06 13:34 | 61.20776 | 58.80817 | 33726 ft | 388 kts | 267° |
| 2026-05-06 13:35 | 61.20476 | 58.69649 | 33729 ft | 388 kts | 267° |
| 2026-05-06 13:35 | 61.20176 | 58.58478 | 33723 ft | 388 kts | 267° |
| 2026-05-06 13:36 | 61.19877 | 58.47333 | 33724 ft | 386 kts | 267° |
| 2026-05-06 13:36 | 61.19581 | 58.36300 | 33723 ft | 385 kts | 267° |
| 2026-05-06 13:37 | 61.19283 | 58.25190 | 33722 ft | 386 kts | 267° |
| 2026-05-06 13:37 | 61.18984 | 58.14044 | 33723 ft | 387 kts | 267° |
| 2026-05-06 13:38 | 61.18685 | 58.02914 | 33728 ft | 387 kts | 266° |
| 2026-05-06 13:38 | 61.18386 | 57.91774 | 33713 ft | 386 kts | 266° |
| 2026-05-06 13:39 | 61.18087 | 57.80665 | 33717 ft | 385 kts | 266° |
| 2026-05-06 13:39 | 61.17789 | 57.69573 | 33720 ft | 385 kts | 266° |
| 2026-05-06 13:40 | 61.17492 | 57.58495 | 33719 ft | 385 kts | 266° |
| 2026-05-06 13:40 | 61.17196 | 57.47488 | 33720 ft | 385 kts | 266° |
| 2026-05-06 13:41 | 61.16898 | 57.36404 | 33718 ft | 386 kts | 266° |
| 2026-05-06 13:41 | 61.16591 | 57.25307 | 33719 ft | 386 kts | 265° |
| 2026-05-06 13:42 | 61.15827 | 57.14338 | 33715 ft | 386 kts | 258° |
| 2026-05-06 13:42 | 61.14595 | 57.03503 | 33715 ft | 386 kts | 258° |
| 2026-05-06 13:43 | 61.13416 | 56.92683 | 33719 ft | 383 kts | 258° |
| 2026-05-06 13:43 | 61.12283 | 56.81916 | 33714 ft | 382 kts | 258° |
| 2026-05-06 13:44 | 61.11139 | 56.71163 | 33708 ft | 383 kts | 258° |
| 2026-05-06 13:44 | 61.09998 | 56.60452 | 33710 ft | 384 kts | 258° |
| 2026-05-06 13:45 | 61.08849 | 56.49672 | 33707 ft | 384 kts | 258° |
| 2026-05-06 13:45 | 61.07128 | 56.33520 | 33707 ft | 384 kts | 258° |
| 2026-05-06 13:46 | 61.05982 | 56.22775 | 33708 ft | 380 kts | 258° |
| 2026-05-06 13:46 | 61.04847 | 56.12132 | 33708 ft | 379 kts | 258° |
| 2026-05-06 13:47 | 61.03712 | 56.01495 | 33708 ft | 380 kts | 258° |
| 2026-05-06 13:47 | 61.02584 | 55.90925 | 33704 ft | 380 kts | 258° |
| 2026-05-06 13:48 | 61.01445 | 55.80259 | 33698 ft | 380 kts | 258° |
| 2026-05-06 13:48 | 61.00309 | 55.69628 | 33695 ft | 380 kts | 258° |
| 2026-05-06 13:49 | 60.99174 | 55.59010 | 33676 ft | 380 kts | 258° |
| 2026-05-06 13:49 | 60.98044 | 55.48432 | 33689 ft | 377 kts | 258° |
| 2026-05-06 13:50 | 60.96915 | 55.37878 | 33695 ft | 377 kts | 258° |
| 2026-05-06 13:50 | 60.95785 | 55.27314 | 33698 ft | 378 kts | 258° |
| 2026-05-06 13:51 | 60.94660 | 55.16802 | 33692 ft | 378 kts | 258° |
| 2026-05-06 13:51 | 60.93529 | 55.06237 | 33685 ft | 378 kts | 258° |
| 2026-05-06 13:52 | 60.92400 | 54.95689 | 33686 ft | 378 kts | 258° |
| 2026-05-06 13:52 | 60.91270 | 54.85149 | 33663 ft | 378 kts | 258° |
| 2026-05-06 13:53 | 60.90138 | 54.74576 | 33681 ft | 380 kts | 258° |
| 2026-05-06 13:53 | 60.89008 | 54.64039 | 33682 ft | 380 kts | 258° |
| 2026-05-06 13:54 | 60.87870 | 54.53426 | 33679 ft | 380 kts | 258° |
| 2026-05-06 13:54 | 60.86733 | 54.42831 | 33687 ft | 380 kts | 258° |
| 2026-05-06 13:55 | 60.85587 | 54.32160 | 33674 ft | 385 kts | 258° |
| 2026-05-06 13:55 | 60.84439 | 54.21463 | 33673 ft | 382 kts | 258° |
| 2026-05-06 13:56 | 60.83299 | 54.10841 | 33677 ft | 380 kts | 258° |
| 2026-05-06 13:56 | 60.82164 | 54.00284 | 33676 ft | 379 kts | 258° |
| 2026-05-06 13:57 | 60.81028 | 53.89707 | 33678 ft | 380 kts | 258° |
| 2026-05-06 13:57 | 60.79900 | 53.79214 | 33677 ft | 380 kts | 258° |
| 2026-05-06 13:58 | 60.78763 | 53.68647 | 33668 ft | 380 kts | 258° |
| 2026-05-06 13:58 | 60.77563 | 53.58112 | 33665 ft | 380 kts | 257° |
| 2026-05-06 13:59 | 60.76258 | 53.47635 | 33667 ft | 380 kts | 257° |
| 2026-05-06 13:59 | 60.74957 | 53.37196 | 33666 ft | 374 kts | 257° |
| 2026-05-06 14:00 | 60.73688 | 53.26941 | 33677 ft | 374 kts | 257° |
| 2026-05-06 14:00 | 60.72409 | 53.16604 | 33670 ft | 374 kts | 257° |
| 2026-05-06 14:01 | 60.71132 | 53.06304 | 33667 ft | 373 kts | 257° |
| 2026-05-06 14:01 | 60.69860 | 52.96045 | 33663 ft | 373 kts | 257° |
| 2026-05-06 14:02 | 60.68587 | 52.85782 | 33669 ft | 373 kts | 257° |
| 2026-05-06 14:02 | 60.67312 | 52.75514 | 33669 ft | 373 kts | 257° |
| 2026-05-06 14:03 | 60.66046 | 52.65313 | 33668 ft | 373 kts | 257° |
| 2026-05-06 14:03 | 60.64769 | 52.55037 | 33672 ft | 374 kts | 256° |
| 2026-05-06 14:04 | 60.63496 | 52.44793 | 33672 ft | 371 kts | 256° |
| 2026-05-06 14:04 | 60.62229 | 52.34586 | 33673 ft | 372 kts | 256° |
| 2026-05-06 14:05 | 60.60956 | 52.24351 | 33671 ft | 373 kts | 256° |
| 2026-05-06 14:05 | 60.59680 | 52.14098 | 33672 ft | 373 kts | 256° |
| 2026-05-06 14:06 | 60.58405 | 52.03845 | 33652 ft | 373 kts | 256° |
| 2026-05-06 14:06 | 60.57136 | 51.93671 | 33675 ft | 374 kts | 255° |
| 2026-05-06 14:07 | 60.55862 | 51.83426 | 33674 ft | 374 kts | 256° |
| 2026-05-06 14:07 | 60.54585 | 51.73189 | 33671 ft | 374 kts | 255° |
| 2026-05-06 14:08 | 60.53254 | 51.62992 | 33671 ft | 373 kts | 255° |
| 2026-05-06 14:08 | 60.51882 | 51.52835 | 33678 ft | 373 kts | 255° |
| 2026-05-06 14:09 | 60.50515 | 51.42666 | 33676 ft | 373 kts | 255° |
| 2026-05-06 14:09 | 60.49149 | 51.32490 | 33668 ft | 373 kts | 255° |
| 2026-05-06 14:10 | 60.47789 | 51.22374 | 33679 ft | 371 kts | 255° |
| 2026-05-06 14:10 | 60.46408 | 51.12321 | 33684 ft | 371 kts | 254° |
| 2026-05-06 14:11 | 60.44965 | 51.02276 | 33682 ft | 371 kts | 253° |
| 2026-05-06 14:11 | 60.43520 | 50.92236 | 33686 ft | 372 kts | 253° |
| 2026-05-06 14:12 | 60.42077 | 50.82174 | 33733 ft | 371 kts | 253° |
| 2026-05-06 14:12 | 60.40641 | 50.72175 | 33685 ft | 373 kts | 253° |
| 2026-05-06 14:13 | 60.39192 | 50.62092 | 33693 ft | 374 kts | 253° |
| 2026-05-06 14:13 | 60.37727 | 50.51898 | 33691 ft | 377 kts | 253° |
| 2026-05-06 14:14 | 60.36270 | 50.41763 | 33693 ft | 375 kts | 253° |
| 2026-05-06 14:14 | 60.34817 | 50.31671 | 33702 ft | 374 kts | 253° |
| 2026-05-06 14:15 | 60.33364 | 50.21572 | 33699 ft | 375 kts | 253° |
| 2026-05-06 14:15 | 60.31904 | 50.11436 | 33706 ft | 375 kts | 253° |
| 2026-05-06 14:16 | 60.30460 | 50.01410 | 33701 ft | 375 kts | 253° |
| 2026-05-06 14:16 | 60.29006 | 49.91323 | 33704 ft | 373 kts | 253° |
| 2026-05-06 14:17 | 60.27554 | 49.81257 | 33706 ft | 373 kts | 253° |
| 2026-05-06 14:17 | 60.26105 | 49.71209 | 33707 ft | 373 kts | 253° |
| 2026-05-06 14:18 | 60.24653 | 49.61155 | 33708 ft | 374 kts | 253° |
| 2026-05-06 14:18 | 60.23444 | 49.52776 | 33708 ft | 375 kts | 253° |
| 2026-05-06 14:19 | 60.21752 | 49.41064 | 33706 ft | 375 kts | 253° |
| 2026-05-06 14:19 | 60.20533 | 49.32632 | 33707 ft | 375 kts | 253° |
| 2026-05-06 14:20 | 60.19022 | 49.22617 | 33714 ft | 373 kts | 251° |
| 2026-05-06 14:20 | 60.17345 | 49.12761 | 33712 ft | 373 kts | 250° |
| 2026-05-06 14:21 | 60.15653 | 49.02954 | 33720 ft | 380 kts | 251° |
| 2026-05-06 14:21 | 60.13922 | 48.92811 | 33717 ft | 383 kts | 251° |
| 2026-05-06 14:22 | 60.12200 | 48.82738 | 33716 ft | 380 kts | 251° |
| 2026-05-06 14:22 | 60.10485 | 48.72716 | 33718 ft | 380 kts | 251° |
| 2026-05-06 14:23 | 60.08772 | 48.62706 | 33708 ft | 381 kts | 251° |
| 2026-05-06 14:23 | 60.07048 | 48.52642 | 33720 ft | 382 kts | 251° |
| 2026-05-06 14:24 | 60.05325 | 48.42582 | 33728 ft | 382 kts | 251° |
| 2026-05-06 14:24 | 60.03603 | 48.32538 | 33729 ft | 381 kts | 251° |
| 2026-05-06 14:25 | 60.01880 | 48.22496 | 33732 ft | 381 kts | 251° |
| 2026-05-06 14:25 | 60.00160 | 48.12470 | 33732 ft | 381 kts | 251° |
| 2026-05-06 14:26 | 59.98436 | 48.02433 | 33728 ft | 382 kts | 251° |
| 2026-05-06 14:26 | 59.96712 | 47.92398 | 33740 ft | 382 kts | 251° |
| 2026-05-06 14:27 | 59.94971 | 47.82439 | 33738 ft | 383 kts | 250° |
| 2026-05-06 14:27 | 59.93170 | 47.72422 | 33743 ft | 383 kts | 250° |
| 2026-05-06 14:28 | 59.91373 | 47.62426 | 33742 ft | 383 kts | 250° |
| 2026-05-06 14:28 | 59.89580 | 47.52433 | 33742 ft | 383 kts | 250° |
| 2026-05-06 14:29 | 59.87789 | 47.42458 | 33748 ft | 383 kts | 250° |
| 2026-05-06 14:29 | 59.85996 | 47.32480 | 33730 ft | 383 kts | 250° |
| 2026-05-06 14:30 | 59.84192 | 47.22445 | 33759 ft | 390 kts | 251° |
| 2026-05-06 14:30 | 59.82336 | 47.12307 | 33752 ft | 392 kts | 250° |
| 2026-05-06 14:31 | 59.80415 | 47.02230 | 33756 ft | 389 kts | 250° |
| 2026-05-06 14:31 | 59.78495 | 46.92178 | 33762 ft | 389 kts | 250° |
| 2026-05-06 14:32 | 59.76584 | 46.82139 | 33753 ft | 389 kts | 250° |
| 2026-05-06 14:32 | 59.74668 | 46.72083 | 33758 ft | 390 kts | 250° |
| 2026-05-06 14:33 | 59.72751 | 46.62032 | 33769 ft | 390 kts | 250° |
| 2026-05-06 14:33 | 59.70824 | 46.51932 | 33762 ft | 391 kts | 250° |
| 2026-05-06 14:34 | 59.68910 | 46.41910 | 33763 ft | 391 kts | 250° |
| 2026-05-06 14:34 | 59.66991 | 46.31865 | 33764 ft | 390 kts | 250° |
| 2026-05-06 14:35 | 59.65074 | 46.21834 | 33761 ft | 390 kts | 250° |
| 2026-05-06 14:35 | 59.63155 | 46.11802 | 33768 ft | 390 kts | 250° |
| 2026-05-06 14:36 | 59.61229 | 46.01739 | 33768 ft | 391 kts | 250° |
| 2026-05-06 14:36 | 59.59308 | 45.91706 | 33773 ft | 391 kts | 250° |
| 2026-05-06 14:37 | 59.57381 | 45.81646 | 33774 ft | 392 kts | 250° |
| 2026-05-06 14:37 | 59.55456 | 45.71602 | 33773 ft | 392 kts | 250° |
| 2026-05-06 14:38 | 59.53527 | 45.61548 | 33779 ft | 392 kts | 250° |
| 2026-05-06 14:38 | 59.51616 | 45.51582 | 33818 ft | 391 kts | 250° |
| 2026-05-06 14:39 | 59.49715 | 45.41577 | 33757 ft | 387 kts | 250° |
| 2026-05-06 14:39 | 59.47826 | 45.31595 | 33784 ft | 392 kts | 250° |
| 2026-05-06 14:40 | 59.45922 | 45.21553 | 33780 ft | 390 kts | 250° |
| 2026-05-06 14:40 | 59.44031 | 45.11593 | 33786 ft | 388 kts | 250° |
| 2026-05-06 14:41 | 59.42146 | 45.01659 | 33785 ft | 388 kts | 250° |
| 2026-05-06 14:41 | 59.40254 | 44.91698 | 33790 ft | 389 kts | 250° |
| 2026-05-06 14:42 | 59.38363 | 44.81748 | 33792 ft | 389 kts | 250° |
| 2026-05-06 14:42 | 59.36471 | 44.71799 | 33795 ft | 389 kts | 250° |
| 2026-05-06 14:43 | 59.34590 | 44.61911 | 33795 ft | 390 kts | 250° |
| 2026-05-06 14:43 | 59.32691 | 44.51941 | 33796 ft | 390 kts | 250° |
| 2026-05-06 14:44 | 59.30797 | 44.41998 | 33797 ft | 389 kts | 250° |
| 2026-05-06 14:45 | 59.27960 | 44.27110 | 33800 ft | 389 kts | 250° |
| 2026-05-06 14:45 | 59.25930 | 44.17391 | 33793 ft | 389 kts | 243° |
| 2026-05-06 14:46 | 59.22698 | 44.08895 | 33816 ft | 394 kts | 231° |
| 2026-05-06 14:46 | 59.18974 | 44.01029 | 33806 ft | 394 kts | 231° |
| 2026-05-06 14:47 | 59.15383 | 43.92961 | 33806 ft | 394 kts | 233° |
| 2026-05-06 14:47 | 59.11819 | 43.84861 | 33806 ft | 393 kts | 232° |
| 2026-05-06 14:48 | 59.08243 | 43.76816 | 33814 ft | 393 kts | 232° |
| 2026-05-06 14:48 | 59.04662 | 43.68767 | 33793 ft | 392 kts | 233° |
| 2026-05-06 14:49 | 59.01084 | 43.60721 | 33813 ft | 394 kts | 233° |
| 2026-05-06 14:49 | 58.97520 | 43.52727 | 33814 ft | 395 kts | 233° |
| 2026-05-06 14:50 | 58.93934 | 43.44689 | 33817 ft | 394 kts | 233° |
| 2026-05-06 14:50 | 58.90349 | 43.36658 | 33819 ft | 394 kts | 233° |
| 2026-05-06 14:51 | 58.86763 | 43.28635 | 33816 ft | 394 kts | 233° |
| 2026-05-06 14:51 | 58.83178 | 43.20617 | 33823 ft | 394 kts | 233° |
| 2026-05-06 14:52 | 58.79580 | 43.12584 | 33819 ft | 396 kts | 234° |
| 2026-05-06 14:52 | 58.76036 | 43.04486 | 33820 ft | 395 kts | 234° |
| 2026-05-06 14:53 | 58.72425 | 42.96600 | 33841 ft | 395 kts | 233° |
| 2026-05-06 14:53 | 58.68759 | 42.88712 | 33820 ft | 395 kts | 233° |
| 2026-05-06 14:54 | 58.65094 | 42.80831 | 33808 ft | 396 kts | 233° |
| 2026-05-06 14:54 | 58.61386 | 42.72832 | 33832 ft | 404 kts | 233° |
| 2026-05-06 14:55 | 58.57630 | 42.64885 | 33829 ft | 400 kts | 233° |